Time;durP1;ratioP1;P1;durP2;ratioP2;P2;SDS_P1;SDS_P2;PMS_P1;PMS_P2;Temp;Humidity;BMP_temperature;BMP_pressure;BME280_temperature;BME280_humidity;BME280_pressure;Samples;Min_cycle;Max_cycle;Signal;HPM_P1;HPM_P2
2021/06/24 00:01:51;;;;;;;2.45;2.00;;;17.70;99.90;;;;;;5046759;28;20244;-78
2021/06/24 00:04:16;;;;;;;2.33;2.13;;;17.70;99.90;;;;;;5047148;28;20182;-77
2021/06/24 00:06:42;;;;;;;2.88;2.20;;;17.60;99.90;;;;;;5029171;28;20214;-78
2021/06/24 00:09:08;;;;;;;2.42;2.05;;;17.60;99.90;;;;;;5039050;28;20194;-78
2021/06/24 00:11:34;;;;;;;2.33;2.13;;;17.50;99.90;;;;;;5046051;28;20178;-78
2021/06/24 00:14:00;;;;;;;2.47;1.83;;;17.50;99.90;;;;;;5047093;28;20635;-77
2021/06/24 00:16:26;;;;;;;2.13;2.00;;;17.60;99.90;;;;;;5046125;28;20217;-78
2021/06/24 00:18:52;;;;;;;2.88;2.08;;;17.50;99.90;;;;;;5046458;28;20182;-78
2021/06/24 00:21:18;;;;;;;1.98;1.80;;;17.50;99.90;;;;;;5046085;28;20311;-78
2021/06/24 00:23:44;;;;;;;1.77;1.65;;;17.60;99.90;;;;;;5046047;28;20186;-78
2021/06/24 00:26:09;;;;;;;2.30;1.83;;;17.60;99.90;;;;;;5045496;28;20770;-78
2021/06/24 00:28:35;;;;;;;2.72;1.95;;;17.70;99.90;;;;;;5045452;28;20319;-79
2021/06/24 00:31:01;;;;;;;3.00;1.92;;;17.70;99.90;;;;;;5046081;28;20217;-78
2021/06/24 00:33:26;;;;;;;1.73;1.60;;;17.60;99.90;;;;;;5046136;28;20189;-78
2021/06/24 00:35:52;;;;;;;2.00;1.75;;;17.60;99.90;;;;;;5046749;28;20214;-76
2021/06/24 00:38:18;;;;;;;1.85;1.73;;;17.50;99.90;;;;;;5046359;28;20186;-78
2021/06/24 00:40:45;;;;;;;3.22;1.83;;;17.50;99.90;;;;;;5046508;28;20186;-78
2021/06/24 00:43:13;;;;;;;2.17;1.98;;;17.60;99.90;;;;;;5046599;28;20186;-76
2021/06/24 00:45:39;;;;;;;1.58;1.48;;;17.60;99.90;;;;;;5046227;28;20236;-78
2021/06/24 00:48:06;;;;;;;1.65;1.55;;;17.50;99.90;;;;;;5029496;28;20197;-78
2021/06/24 00:50:32;;;;;;;1.85;1.73;;;17.50;99.90;;;;;;5046579;28;20597;-78
2021/06/24 00:52:58;;;;;;;1.75;1.65;;;17.50;99.90;;;;;;5045395;28;21055;-78
2021/06/24 00:58:12;;;;;;;1.95;1.70;;;17.40;99.90;;;;;;5047137;28;20201;-79
2021/06/24 01:00:39;;;;;;;1.88;1.33;;;17.50;99.90;;;;;;5045974;28;20591;-79
2021/06/24 01:06:26;;;;;;;1.70;1.60;;;17.30;99.90;;;;;;5046567;28;20233;-78
2021/06/24 01:08:52;;;;;;;1.90;1.70;;;17.20;99.90;;;;;;5044964;28;20182;-79
2021/06/24 01:11:18;;;;;;;2.17;1.55;;;17.20;99.90;;;;;;5048712;28;20185;-77
2021/06/24 01:13:46;;;;;;;3.55;2.05;;;17.20;99.90;;;;;;5045718;28;20304;-79
2021/06/24 01:16:12;;;;;;;3.40;1.88;;;17.30;99.90;;;;;;5047193;28;20220;-79
2021/06/24 01:18:38;;;;;;;2.05;1.70;;;17.30;99.90;;;;;;5030072;28;20213;-79
2021/06/24 01:21:04;;;;;;;1.98;1.85;;;17.20;99.90;;;;;;5033491;28;20174;-79
2021/06/24 01:23:38;;;;;;;1.98;1.63;;;17.20;99.90;;;;;;5050056;28;20225;-78
2021/06/24 01:26:03;;;;;;;2.78;1.73;;;17.20;99.90;;;;;;5040034;28;20281;-79
2021/06/24 01:28:29;;;;;;;2.97;2.05;;;17.10;99.90;;;;;;5048553;28;20226;-78
2021/06/24 01:30:55;;;;;;;2.03;1.73;;;17.10;99.90;;;;;;5052721;28;20541;-79
2021/06/24 01:33:24;;;;;;;1.73;1.25;;;17.10;99.90;;;;;;5052280;28;20230;-79
2021/06/24 01:35:55;;;;;;;1.73;1.55;;;17.00;99.90;;;;;;5053491;28;20214;-78
2021/06/24 01:38:21;;;;;;;1.58;1.48;;;17.00;99.90;;;;;;5050987;28;20205;-78
2021/06/24 01:40:46;;;;;;;1.85;1.73;;;16.90;99.90;;;;;;5050780;28;20198;-79
2021/06/24 01:43:12;;;;;;;1.75;1.50;;;16.90;99.90;;;;;;5049279;28;20182;-79
2021/06/24 01:45:49;;;;;;;2.60;1.92;;;16.90;99.90;;;;;;5049569;28;20202;-79
2021/06/24 01:48:15;;;;;;;1.88;1.70;;;17.00;99.90;;;;;;5049030;28;20190;-79
2021/06/24 01:50:41;;;;;;;1.60;1.45;;;16.90;99.90;;;;;;5049515;28;20194;-79
2021/06/24 01:53:07;;;;;;;2.67;1.92;;;16.90;99.90;;;;;;5049270;28;20213;-78
2021/06/24 01:55:33;;;;;;;4.70;2.17;;;16.90;99.90;;;;;;5048823;28;20333;-79
2021/06/24 01:58:00;;;;;;;2.80;1.92;;;16.80;99.90;;;;;;5049065;28;20411;-79
2021/06/24 02:00:26;;;;;;;2.67;1.85;;;16.90;99.90;;;;;;5031680;28;20175;-78
2021/06/24 02:02:51;;;;;;;3.42;2.22;;;16.90;99.90;;;;;;5047613;28;20662;-78
2021/06/24 02:05:17;;;;;;;1.88;1.77;;;16.90;99.90;;;;;;5047715;28;20268;-77
2021/06/24 02:07:43;;;;;;;2.75;2.20;;;16.80;99.90;;;;;;5048165;28;20220;-79
2021/06/24 02:10:10;;;;;;;2.22;1.88;;;16.80;99.90;;;;;;5048266;28;21316;-79
2021/06/24 02:12:36;;;;;;;2.42;1.70;;;16.80;99.90;;;;;;5048158;28;20285;-79
2021/06/24 02:15:08;;;;;;;3.22;1.77;;;16.80;99.90;;;;;;5048176;28;20309;-79
2021/06/24 02:17:34;;;;;;;1.73;1.60;;;16.80;99.90;;;;;;5048281;28;20189;-79
2021/06/24 02:20:00;;;;;;;1.85;1.73;;;16.70;99.90;;;;;;5031160;28;20178;-79
2021/06/24 02:22:25;;;;;;;1.90;1.80;;;16.80;99.90;;;;;;5047987;28;20205;-77
2021/06/24 02:24:51;;;;;;;2.72;2.38;;;16.70;99.90;;;;;;5047966;28;20213;-79
2021/06/24 02:27:17;;;;;;;4.50;2.00;;;16.70;99.90;;;;;;5031774;28;20317;-78
2021/06/24 02:29:44;;;;;;;2.97;1.77;;;16.70;99.90;;;;;;5032890;28;20220;-79
2021/06/24 02:32:10;;;;;;;4.05;1.92;;;16.60;99.90;;;;;;5047889;28;20189;-79
2021/06/24 02:34:36;;;;;;;2.28;2.08;;;16.60;99.90;;;;;;5050187;28;21145;-78
2021/06/24 02:37:02;;;;;;;3.97;2.00;;;16.60;99.90;;;;;;5030215;28;20293;-79
2021/06/24 02:39:28;;;;;;;2.45;2.08;;;16.60;99.90;;;;;;5047925;28;21099;-78
2021/06/24 02:41:54;;;;;;;2.67;1.50;;;16.50;99.90;;;;;;5047397;28;20186;-79
2021/06/24 02:44:19;;;;;;;2.35;1.58;;;16.50;99.90;;;;;;5032127;28;20181;-79
2021/06/24 02:46:45;;;;;;;1.92;1.70;;;16.50;99.90;;;;;;5048627;28;20306;-78
2021/06/24 02:49:11;;;;;;;2.30;1.90;;;16.40;99.90;;;;;;5031623;28;20236;-78
2021/06/24 02:51:38;;;;;;;2.15;1.45;;;16.40;99.90;;;;;;5048686;28;20178;-79
2021/06/24 02:54:04;;;;;;;2.10;1.90;;;16.50;99.90;;;;;;5048554;28;20190;-79
2021/06/24 02:56:40;;;;;;;2.10;1.90;;;16.50;99.90;;;;;;5047112;28;20272;-78
2021/06/24 02:59:06;;;;;;;3.25;1.85;;;16.50;99.90;;;;;;5047397;28;20182;-79
2021/06/24 03:01:32;;;;;;;2.35;1.70;;;16.50;99.90;;;;;;5048171;28;20186;-78
2021/06/24 03:03:57;;;;;;;2.42;2.22;;;16.50;99.90;;;;;;5048077;28;20186;-79
2021/06/24 03:06:23;;;;;;;2.00;1.80;;;16.50;99.90;;;;;;5047886;28;20225;-79
2021/06/24 03:08:49;;;;;;;2.78;1.92;;;16.40;99.90;;;;;;5048359;28;20194;-79
2021/06/24 03:11:15;;;;;;;3.05;2.13;;;16.30;99.90;;;;;;5048216;28;20186;-79
2021/06/24 03:13:41;;;;;;;4.53;2.17;;;16.20;99.90;;;;;;5047992;28;20725;-78
2021/06/24 03:16:07;;;;;;;3.22;1.90;;;16.20;99.90;;;;;;5047234;28;20737;-78
2021/06/24 03:18:32;;;;;;;2.40;2.20;;;16.20;99.90;;;;;;5047154;28;20182;-78
2021/06/24 03:20:58;;;;;;;2.40;2.10;;;16.20;99.90;;;;;;5047464;28;20237;-78
2021/06/24 03:23:24;;;;;;;3.47;1.80;;;16.20;99.90;;;;;;5046457;28;20182;-78
2021/06/24 03:25:49;;;;;;;3.15;2.22;;;16.20;99.90;;;;;;5046709;28;20353;-79
2021/06/24 03:28:15;;;;;;;3.05;2.40;;;16.20;99.90;;;;;;5046661;28;20182;-79
2021/06/24 03:30:42;;;;;;;2.78;2.42;;;16.20;99.90;;;;;;5047657;28;20206;-78
2021/06/24 03:33:08;;;;;;;3.15;2.25;;;16.20;99.90;;;;;;5046855;28;20178;-79
2021/06/24 03:35:33;;;;;;;2.90;1.85;;;16.10;99.90;;;;;;5046659;28;20225;-79
2021/06/24 03:37:59;;;;;;;2.22;2.03;;;16.20;99.90;;;;;;5029583;28;20178;-79
2021/06/24 03:40:25;;;;;;;3.58;2.00;;;16.00;99.90;;;;;;5046803;28;20181;-79
2021/06/24 03:42:52;;;;;;;4.47;2.70;;;16.00;99.90;;;;;;5029971;28;20249;-79
2021/06/24 03:45:17;;;;;;;2.10;1.90;;;16.10;99.90;;;;;;5045538;28;20600;-79
2021/06/24 03:47:43;;;;;;;2.80;2.35;;;16.20;99.90;;;;;;5046820;28;20184;-79
2021/06/24 03:50:11;;;;;;;2.63;2.17;;;16.10;99.90;;;;;;5046449;28;20187;-79
2021/06/24 03:52:36;;;;;;;2.42;2.03;;;16.20;99.90;;;;;;5045623;28;20174;-79
2021/06/24 03:55:02;;;;;;;2.40;2.20;;;16.30;99.90;;;;;;5045844;28;20583;-79
2021/06/24 03:57:28;;;;;;;3.05;2.67;;;16.30;99.90;;;;;;5045996;28;20176;-79
2021/06/24 03:59:54;;;;;;;2.50;2.30;;;16.30;99.90;;;;;;5046250;28;20177;-78
2021/06/24 04:02:19;;;;;;;2.38;2.15;;;16.20;99.90;;;;;;5046164;28;20186;-79
2021/06/24 04:04:45;;;;;;;3.03;2.50;;;16.10;99.90;;;;;;5046523;28;20259;-79
2021/06/24 04:07:11;;;;;;;2.53;2.33;;;16.10;99.90;;;;;;5046495;28;20320;-79
2021/06/24 04:09:36;;;;;;;3.42;2.72;;;16.20;99.90;;;;;;5046470;28;20206;-79
2021/06/24 04:12:02;;;;;;;2.60;2.20;;;16.30;99.90;;;;;;5046784;28;20209;-79
2021/06/24 04:14:28;;;;;;;2.75;2.55;;;16.40;99.90;;;;;;5046470;28;20182;-79
2021/06/24 04:16:53;;;;;;;4.25;2.17;;;16.50;99.90;;;;;;5046933;28;20519;-79
2021/06/24 04:19:20;;;;;;;2.47;2.20;;;16.40;99.90;;;;;;5046335;28;20524;-77
2021/06/24 04:21:46;;;;;;;4.18;2.63;;;16.60;99.90;;;;;;5046338;28;20174;-77
2021/06/24 04:24:11;;;;;;;2.78;2.45;;;16.60;99.90;;;;;;5046786;28;20205;-79
2021/06/24 04:26:37;;;;;;;3.45;2.40;;;16.70;99.90;;;;;;5029807;28;20210;-78
2021/06/24 04:29:03;;;;;;;3.35;2.70;;;16.60;99.90;;;;;;5028932;28;20209;-79
2021/06/24 04:31:28;;;;;;;3.65;2.90;;;16.70;99.90;;;;;;5047117;28;20178;-77
2021/06/24 04:33:56;;;;;;;4.60;3.08;;;16.80;99.90;;;;;;5047099;28;20186;-79
2021/06/24 04:36:22;;;;;;;3.58;2.70;;;16.80;99.90;;;;;;5045632;28;20214;-78
2021/06/24 04:38:47;;;;;;;5.90;3.05;;;16.90;99.90;;;;;;5045523;28;20456;-79
2021/06/24 04:41:13;;;;;;;5.07;2.35;;;17.00;99.90;;;;;;5028300;28;20182;-79
2021/06/24 04:43:38;;;;;;;2.35;2.10;;;17.10;99.90;;;;;;5046510;28;20182;-78
2021/06/24 04:46:04;;;;;;;4.15;2.42;;;17.00;99.90;;;;;;5046075;28;20213;-79
2021/06/24 04:48:30;;;;;;;2.42;2.22;;;16.90;99.90;;;;;;5046816;28;20268;-79
2021/06/24 04:50:55;;;;;;;2.22;1.92;;;16.90;99.90;;;;;;5029417;28;20186;-79
2021/06/24 04:53:21;;;;;;;2.42;2.15;;;16.90;99.90;;;;;;5046401;28;20222;-78
2021/06/24 04:55:47;;;;;;;2.35;2.15;;;16.90;99.90;;;;;;5046504;28;20213;-79
2021/06/24 04:58:12;;;;;;;2.80;2.33;;;17.00;99.90;;;;;;5046182;28;20176;-79
2021/06/24 05:00:38;;;;;;;3.35;2.80;;;17.00;99.90;;;;;;5045942;28;20219;-79
2021/06/24 05:03:05;;;;;;;2.40;2.20;;;17.00;99.90;;;;;;5045929;28;20209;-79
2021/06/24 05:05:31;;;;;;;4.20;3.10;;;17.00;99.90;;;;;;5049778;28;20205;-79
2021/06/24 05:07:57;;;;;;;3.30;2.50;;;17.10;99.90;;;;;;5033230;28;20205;-79
2021/06/24 05:10:23;;;;;;;3.08;2.53;;;17.20;99.90;;;;;;5049785;28;20205;-77
2021/06/24 05:12:49;;;;;;;5.40;2.78;;;17.30;99.90;;;;;;5050217;28;20189;-78
2021/06/24 05:15:15;;;;;;;3.88;2.40;;;17.40;99.90;;;;;;5032374;28;20202;-79
2021/06/24 05:17:41;;;;;;;3.50;2.70;;;17.50;99.90;;;;;;5049529;28;20208;-78
2021/06/24 05:20:08;;;;;;;2.25;2.00;;;17.50;99.90;;;;;;5031980;28;21280;-79
2021/06/24 05:22:35;;;;;;;2.90;2.58;;;17.60;99.90;;;;;;5048785;28;20186;-78
2021/06/24 05:25:01;;;;;;;2.75;2.55;;;17.70;99.90;;;;;;5046652;28;20200;-79
2021/06/24 05:27:26;;;;;;;3.22;2.58;;;17.90;99.90;;;;;;5048157;28;20552;-78
2021/06/24 05:29:52;;;;;;;3.03;2.72;;;17.70;99.90;;;;;;5048772;28;20190;-78
2021/06/24 05:32:17;;;;;;;2.72;2.53;;;17.50;99.90;;;;;;5049167;28;20193;-78
2021/06/24 05:34:43;;;;;;;4.18;2.75;;;17.40;99.90;;;;;;5047940;28;20210;-78
2021/06/24 05:37:09;;;;;;;4.15;3.08;;;17.40;99.90;;;;;;5048167;28;20205;-77
2021/06/24 05:39:35;;;;;;;4.28;2.70;;;17.50;99.90;;;;;;5049305;28;20178;-77
2021/06/24 05:42:01;;;;;;;4.03;2.83;;;17.70;99.90;;;;;;5048837;28;20182;-78
2021/06/24 05:44:28;;;;;;;2.97;2.65;;;17.90;99.90;;;;;;5049889;28;20192;-78
2021/06/24 05:46:56;;;;;;;4.55;2.55;;;18.00;99.90;;;;;;5031330;28;20209;-78
2021/06/24 05:49:22;;;;;;;3.47;3.03;;;17.90;99.90;;;;;;5048892;28;20183;-78
2021/06/24 05:51:48;;;;;;;4.05;2.50;;;18.00;99.90;;;;;;5048741;28;20658;-78
2021/06/24 05:54:14;;;;;;;3.80;2.83;;;18.00;99.90;;;;;;5048917;28;20178;-78
2021/06/24 05:56:43;;;;;;;3.10;2.78;;;18.00;99.90;;;;;;5048774;28;20214;-78
2021/06/24 05:59:09;;;;;;;3.95;2.75;;;18.00;99.90;;;;;;5048950;28;20965;-78
2021/06/24 06:01:37;;;;;;;3.20;2.83;;;18.10;99.90;;;;;;5049006;28;20204;-79
2021/06/24 06:04:02;;;;;;;5.10;3.15;;;18.00;99.90;;;;;;5048506;28;20811;-78
2021/06/24 06:06:28;;;;;;;3.13;2.30;;;18.00;99.90;;;;;;5048057;28;20253;-77
2021/06/24 06:08:53;;;;;;;3.83;2.80;;;17.90;99.90;;;;;;5048281;28;20193;-79
2021/06/24 06:11:19;;;;;;;5.32;3.78;;;17.90;99.90;;;;;;5047503;28;20190;-78
2021/06/24 06:13:45;;;;;;;6.30;3.65;;;17.80;99.90;;;;;;5032073;28;20186;-79
2021/06/24 06:16:10;;;;;;;4.80;3.38;;;17.80;99.90;;;;;;5048348;28;20213;-78
2021/06/24 06:18:36;;;;;;;3.40;3.10;;;17.70;99.90;;;;;;5048639;28;20178;-79
2021/06/24 06:21:02;;;;;;;3.03;2.72;;;17.70;99.90;;;;;;5048609;28;20186;-78
2021/06/24 06:23:28;;;;;;;4.43;2.95;;;17.80;99.90;;;;;;5048379;28;20280;-79
2021/06/24 06:25:55;;;;;;;3.65;3.15;;;17.80;99.90;;;;;;5047325;28;20269;-79
2021/06/24 06:28:22;;;;;;;4.65;3.35;;;17.80;99.90;;;;;;5047857;28;20208;-78
2021/06/24 06:30:49;;;;;;;2.95;2.50;;;17.90;99.90;;;;;;5030200;28;20182;-79
2021/06/24 06:33:16;;;;;;;3.53;3.10;;;17.90;99.90;;;;;;5031056;28;20559;-79
2021/06/24 06:35:41;;;;;;;3.50;2.92;;;18.00;99.90;;;;;;5047617;28;20258;-77
2021/06/24 06:38:07;;;;;;;4.60;3.30;;;17.90;99.90;;;;;;5048087;28;20209;-79
2021/06/24 06:40:33;;;;;;;9.15;3.58;;;17.90;99.90;;;;;;5048993;28;20191;-78
2021/06/24 06:42:59;;;;;;;4.90;3.58;;;17.80;99.90;;;;;;5048937;28;20186;-77
2021/06/24 06:45:27;;;;;;;5.80;3.88;;;17.70;99.90;;;;;;5030985;28;20289;-79
2021/06/24 06:47:53;;;;;;;3.90;3.20;;;17.50;99.90;;;;;;5050028;28;20182;-81
2021/06/24 06:50:18;;;;;;;4.45;3.33;;;17.50;99.90;;;;;;5054305;28;20189;-81
2021/06/24 06:52:44;;;;;;;4.35;3.33;;;17.50;99.90;;;;;;5052363;28;20272;-80
2021/06/24 06:55:10;;;;;;;4.65;3.65;;;17.60;99.90;;;;;;5033791;28;20239;-81
2021/06/24 06:57:36;;;;;;;4.00;3.40;;;17.50;99.90;;;;;;5034326;28;20178;-80
2021/06/24 07:00:05;;;;;;;4.57;2.90;;;17.50;99.90;;;;;;5035292;28;20197;-76
2021/06/24 07:02:30;;;;;;;4.65;3.83;;;17.50;99.90;;;;;;5047533;28;20170;-79
2021/06/24 07:04:56;;;;;;;5.28;3.30;;;17.70;99.90;;;;;;5047414;28;20201;-79
2021/06/24 07:07:22;;;;;;;3.97;3.25;;;17.70;99.90;;;;;;5046378;28;20301;-79
2021/06/24 07:09:47;;;;;;;3.25;2.92;;;17.80;99.90;;;;;;5045042;28;20178;-78
2021/06/24 07:12:13;;;;;;;4.20;3.25;;;17.90;99.90;;;;;;5028987;28;20216;-80
2021/06/24 07:14:39;;;;;;;5.13;3.38;;;18.00;99.90;;;;;;5044590;28;20278;-79
2021/06/24 07:17:05;;;;;;;3.70;3.28;;;18.10;99.90;;;;;;5044599;28;20202;-78
2021/06/24 07:19:30;;;;;;;4.78;2.95;;;18.10;99.90;;;;;;5045572;28;20788;-78
2021/06/24 07:21:56;;;;;;;3.67;3.13;;;18.30;99.90;;;;;;5046538;28;20294;-78
2021/06/24 07:24:21;;;;;;;3.63;3.20;;;18.50;99.90;;;;;;5046933;28;20666;-78
2021/06/24 07:26:47;;;;;;;3.42;3.13;;;18.60;99.90;;;;;;5028858;28;20639;-77
2021/06/24 07:29:13;;;;;;;4.90;2.90;;;18.70;99.90;;;;;;5044217;28;20194;-78
2021/06/24 07:31:38;;;;;;;5.05;3.83;;;18.80;99.90;;;;;;5043909;28;20182;-77
2021/06/24 07:34:04;;;;;;;3.10;2.80;;;18.80;99.90;;;;;;5039311;28;20190;-78
2021/06/24 07:36:30;;;;;;;4.80;2.92;;;18.90;99.90;;;;;;5044849;28;20226;-78
2021/06/24 07:38:55;;;;;;;5.15;3.03;;;19.00;99.90;;;;;;5028224;28;20718;-78
2021/06/24 07:41:23;;;;;;;3.15;2.70;;;19.10;99.90;;;;;;5027222;28;20197;-77
2021/06/24 07:43:50;;;;;;;3.75;3.28;;;19.30;99.90;;;;;;5045115;28;20223;-77
2021/06/24 07:46:15;;;;;;;3.63;3.00;;;19.40;99.90;;;;;;5028407;28;20289;-79
2021/06/24 07:48:41;;;;;;;4.78;2.80;;;19.40;99.90;;;;;;5029649;28;20240;-79
2021/06/24 07:51:07;;;;;;;2.95;2.65;;;19.50;99.90;;;;;;5046144;28;20260;-77
2021/06/24 07:53:32;;;;;;;7.53;2.90;;;19.70;99.90;;;;;;5046134;28;20182;-78
2021/06/24 07:55:58;;;;;;;3.35;3.00;;;19.90;99.90;;;;;;5045786;28;20214;-77
2021/06/24 07:58:23;;;;;;;5.15;3.30;;;20.00;99.90;;;;;;5045019;28;20185;-77
2021/06/24 08:00:49;;;;;;;3.47;2.63;;;20.00;99.90;;;;;;5044794;28;20675;-78
2021/06/24 08:03:14;;;;;;;3.92;3.33;;;19.90;99.90;;;;;;5045367;28;20182;-78
2021/06/24 08:05:41;;;;;;;4.55;2.95;;;20.00;99.90;;;;;;5044989;28;20236;-79
2021/06/24 08:08:07;;;;;;;3.83;2.92;;;20.20;99.90;;;;;;5028133;28;20209;-78
2021/06/24 08:10:32;;;;;;;3.50;3.20;;;20.40;99.90;;;;;;5028184;28;20186;-77
2021/06/24 08:12:58;;;;;;;3.30;2.95;;;20.50;99.90;;;;;;5045441;28;20187;-77
2021/06/24 08:15:26;;;;;;;3.38;2.70;;;20.50;99.90;;;;;;5044945;28;20286;-77
2021/06/24 08:17:52;;;;;;;2.58;2.22;;;20.40;99.90;;;;;;5044602;28;20665;-80
2021/06/24 08:20:18;;;;;;;3.72;2.72;;;20.50;99.90;;;;;;5044922;28;20190;-78
2021/06/24 08:22:44;;;;;;;5.35;2.95;;;20.60;99.90;;;;;;5028520;28;20182;-78
2021/06/24 08:25:11;;;;;;;2.33;2.13;;;20.30;99.90;;;;;;5028307;28;20190;-77
2021/06/24 08:27:36;;;;;;;2.80;2.45;;;20.30;99.90;;;;;;5044851;28;20212;-79
2021/06/24 08:30:07;;;;;;;3.70;2.40;;;20.40;99.90;;;;;;5026395;28;20194;-78
2021/06/24 08:32:33;;;;;;;3.92;2.75;;;20.60;99.90;;;;;;5026812;28;20232;-77
2021/06/24 08:34:58;;;;;;;2.45;1.95;;;20.60;99.90;;;;;;5043908;28;20650;-78
2021/06/24 08:37:25;;;;;;;2.47;2.28;;;20.60;99.90;;;;;;5037532;28;20273;-80
2021/06/24 08:39:51;;;;;;;4.85;2.63;;;20.40;99.90;;;;;;5047384;28;20170;-78
2021/06/24 08:42:17;;;;;;;3.83;2.55;;;20.50;99.90;;;;;;5048298;28;20601;-78
2021/06/24 08:44:47;;;;;;;3.15;2.53;;;20.60;99.90;;;;;;5048174;28;20186;-78
2021/06/24 08:47:15;;;;;;;2.63;2.40;;;20.60;99.90;;;;;;5048022;28;20199;-79
2021/06/24 08:49:42;;;;;;;2.60;1.98;;;20.90;99.90;;;;;;5047801;28;20189;-78
2021/06/24 08:52:09;;;;;;;3.83;2.47;;;20.90;99.90;;;;;;5048553;28;20319;-79
2021/06/24 08:54:36;;;;;;;3.33;2.10;;;20.90;99.90;;;;;;5047696;28;20175;-78
2021/06/24 08:57:02;;;;;;;2.72;1.95;;;20.80;99.90;;;;;;5031690;28;20235;-79
2021/06/24 08:59:27;;;;;;;1.80;1.70;;;20.80;99.90;;;;;;5047835;28;20185;-79
2021/06/24 09:01:58;;;;;;;4.05;2.13;;;20.90;99.90;;;;;;5031249;28;20647;-78
2021/06/24 09:04:30;;;;;;;1.80;1.52;;;21.00;99.90;;;;;;5047268;28;20178;-80
2021/06/24 09:07:22;;;;;;;3.22;1.92;;;21.10;99.90;;;;;;5047321;28;20331;-77
2021/06/24 09:09:56;;;;;;;1.63;1.50;;;21.30;99.90;;;;;;5031722;28;20200;-79
2021/06/24 09:12:23;;;;;;;2.25;2.00;;;21.60;99.90;;;;;;5047084;28;20194;-78
2021/06/24 09:15:01;;;;;;;1.63;1.52;;;21.40;99.90;;;;;;5047750;28;20209;-79
2021/06/24 09:17:36;;;;;;;8.35;2.78;;;21.30;99.90;;;;;;5048326;28;20182;-77
2021/06/24 09:20:19;;;;;;;2.45;1.88;;;21.50;99.90;;;;;;5047520;28;20666;-77
2021/06/24 09:23:23;;;;;;;2.63;1.67;;;21.60;99.90;;;;;;5045657;28;20213;-78
2021/06/24 09:26:06;;;;;;;2.10;1.50;;;21.60;99.90;;;;;;5045920;28;21254;-78
2021/06/24 09:28:43;;;;;;;1.88;1.60;;;21.60;99.90;;;;;;5029576;28;20197;-77
2021/06/24 09:31:24;;;;;;;1.83;1.58;;;21.40;99.90;;;;;;5044528;28;20222;-79
2021/06/24 09:33:50;;;;;;;3.55;1.90;;;21.20;99.90;;;;;;5045947;28;20182;-77
2021/06/24 09:36:40;;;;;;;3.15;1.27;;;21.40;99.90;;;;;;5046267;28;20254;-79
2021/06/24 09:39:18;;;;;;;1.33;1.23;;;21.80;99.90;;;;;;5042211;28;20209;-78
2021/06/24 09:42:05;;;;;;;2.00;1.83;;;22.10;99.90;;;;;;5047309;28;20174;-79
2021/06/24 09:44:32;;;;;;;1.70;1.50;;;22.00;99.90;;;;;;5033900;28;20194;-78
2021/06/24 09:46:59;;;;;;;2.30;1.58;;;22.20;99.90;;;;;;5039794;28;20225;-77
2021/06/24 09:49:30;;;;;;;1.50;1.27;;;22.00;99.90;;;;;;5029054;28;20535;-77
2021/06/24 09:51:57;;;;;;;1.73;1.35;;;22.10;99.90;;;;;;5046014;28;20587;-77
2021/06/24 09:54:43;;;;;;;1.77;1.45;;;22.20;99.90;;;;;;5045961;28;20244;-78
2021/06/24 09:57:20;;;;;;;1.60;1.50;;;22.10;99.90;;;;;;5045916;28;20292;-79
2021/06/24 09:59:46;;;;;;;2.03;1.63;;;22.30;99.90;;;;;;5039042;28;20193;-79
2021/06/24 10:02:13;;;;;;;1.98;1.77;;;22.40;99.90;;;;;;5030215;28;20281;-77
2021/06/24 10:04:46;;;;;;;1.70;1.45;;;22.20;99.90;;;;;;5046279;28;20180;-77
2021/06/24 10:07:21;;;;;;;1.50;1.40;;;22.00;99.90;;;;;;5046388;28;20218;-77
2021/06/24 10:09:47;;;;;;;1.58;1.40;;;22.10;99.90;;;;;;5029748;28;20232;-78
2021/06/24 10:12:20;;;;;;;1.70;1.48;;;21.90;99.90;;;;;;5047292;28;20182;-78
2021/06/24 10:14:46;;;;;;;1.77;1.65;;;22.10;99.90;;;;;;5029442;28;20807;-77
2021/06/24 10:17:12;;;;;;;1.63;1.52;;;22.30;99.90;;;;;;5029107;28;20263;-78
2021/06/24 10:19:40;;;;;;;1.75;1.48;;;22.40;99.90;;;;;;5046200;28;20187;-78
2021/06/24 10:22:17;;;;;;;2.05;1.85;;;22.40;99.90;;;;;;5046937;28;20177;-78
2021/06/24 10:24:55;;;;;;;3.13;1.77;;;22.30;99.90;;;;;;5046024;28;20189;-78
2021/06/24 10:27:23;;;;;;;2.33;1.40;;;22.40;99.90;;;;;;5045896;28;20225;-78
2021/06/24 10:29:51;;;;;;;3.03;2.05;;;22.40;99.90;;;;;;5027930;28;20182;-77
2021/06/24 10:32:30;;;;;;;2.08;1.90;;;22.30;99.90;;;;;;5046415;28;20189;-77
2021/06/24 10:34:58;;;;;;;2.03;1.33;;;22.30;99.90;;;;;;5043828;28;20624;-77
2021/06/24 10:37:25;;;;;;;1.50;1.27;;;22.10;99.90;;;;;;5025395;28;20259;-77
2021/06/24 10:40:21;;;;;;;2.30;1.75;;;22.60;99.90;;;;;;5044917;28;20729;-78
2021/06/24 10:42:58;;;;;;;1.98;1.40;;;23.20;99.90;;;;;;5029766;28;20186;-79
2021/06/24 10:45:25;;;;;;;2.65;1.58;;;23.40;99.90;;;;;;5048118;28;20228;-80
2021/06/24 10:47:51;;;;;;;1.77;1.48;;;23.50;99.90;;;;;;5030956;28;20194;-78
2021/06/24 10:50:26;;;;;;;1.92;1.60;;;23.90;99.90;;;;;;5031084;28;20214;-78
2021/06/24 10:52:53;;;;;;;1.70;1.58;;;23.50;99.90;;;;;;5047295;28;20186;-78
2021/06/24 10:55:39;;;;;;;2.00;1.80;;;23.20;99.90;;;;;;5048344;28;20205;-78
2021/06/24 10:58:10;;;;;;;1.70;1.60;;;23.10;99.90;;;;;;5047559;28;20183;-79
2021/06/24 11:00:37;;;;;;;2.05;1.65;;;23.50;99.90;;;;;;5046996;28;20201;-78
2021/06/24 11:03:05;;;;;;;2.00;1.77;;;23.60;99.90;;;;;;5044096;28;20178;-78
2021/06/24 11:05:35;;;;;;;1.77;1.67;;;23.70;99.90;;;;;;5043852;28;20306;-78
2021/06/24 11:08:15;;;;;;;1.70;1.60;;;24.00;99.90;;;;;;5040781;28;20667;-78
2021/06/24 11:10:57;;;;;;;1.60;1.50;;;23.60;99.90;;;;;;5041915;28;20575;-78
2021/06/24 11:13:41;;;;;;;2.25;2.05;;;23.70;99.90;;;;;;5041337;28;20188;-78
2021/06/24 11:16:07;;;;;;;1.80;1.70;;;23.20;99.90;;;;;;5032466;28;20221;-78
2021/06/24 11:18:36;;;;;;;1.70;1.60;;;23.30;99.90;;;;;;5027137;28;20660;-78
2021/06/24 11:21:07;;;;;;;2.03;1.77;;;23.50;99.90;;;;;;5026870;28;20178;-78
2021/06/24 11:23:45;;;;;;;2.05;1.92;;;23.70;99.90;;;;;;5043965;28;20666;-77
2021/06/24 11:26:13;;;;;;;2.30;2.10;;;23.90;99.90;;;;;;5043208;28;20243;-78
2021/06/24 11:28:48;;;;;;;3.63;1.95;;;24.10;99.90;;;;;;5025051;28;20429;-78
2021/06/24 11:31:20;;;;;;;2.45;2.15;;;24.10;99.90;;;;;;5043581;28;20209;-79
2021/06/24 11:34:16;;;;;;;2.58;2.20;;;24.30;99.90;;;;;;5043073;28;20611;-78
2021/06/24 11:36:57;;;;;;;2.17;1.98;;;24.60;99.90;;;;;;5026508;28;20241;-78
2021/06/24 11:39:25;;;;;;;2.28;1.88;;;24.90;99.90;;;;;;5042419;28;20857;-78
2021/06/24 11:42:06;;;;;;;2.25;1.88;;;25.10;99.90;;;;;;5043221;28;20729;-78
2021/06/24 11:44:38;;;;;;;2.15;1.95;;;25.00;99.90;;;;;;5026983;28;21325;-78
2021/06/24 11:47:08;;;;;;;3.33;2.13;;;25.20;99.90;;;;;;5042621;28;20228;-78
2021/06/24 12:04:07;;;;;;;3.20;2.28;;;24.00;99.90;;;;;;5043139;28;20651;-78
2021/06/24 12:06:53;;;;;;;4.22;2.65;;;23.60;99.90;;;;;;5042314;28;20249;-78
2021/06/24 12:09:22;;;;;;;4.50;2.67;;;23.60;99.90;;;;;;5042160;28;20663;-77
2021/06/24 12:11:50;;;;;;;2.63;2.25;;;23.60;99.90;;;;;;5042745;28;20186;-78
2021/06/24 12:14:22;;;;;;;3.70;2.05;;;23.50;99.90;;;;;;5042254;28;20186;-77
2021/06/24 12:17:09;;;;;;;1.85;1.75;;;23.40;99.90;;;;;;5042203;28;20237;-77
2021/06/24 12:19:48;;;;;;;3.03;1.85;;;23.30;99.90;;;;;;5042984;28;20177;-78
2021/06/24 12:22:15;;;;;;;1.70;1.45;;;23.30;99.90;;;;;;5042475;28;20198;-77
2021/06/24 12:24:42;;;;;;;2.35;1.75;;;23.10;99.90;;;;;;5043176;28;20189;-77
2021/06/24 12:27:28;;;;;;;2.90;2.17;;;22.90;99.90;;;;;;5042484;28;20271;-77
2021/06/24 12:29:57;;;;;;;1.90;1.70;;;22.70;99.90;;;;;;5042633;28;20186;-78
2021/06/24 12:32:24;;;;;;;1.52;1.30;;;22.40;99.90;;;;;;5042252;28;20239;-77
2021/06/24 12:34:52;;;;;;;2.20;1.90;;;22.20;99.90;;;;;;5042306;28;20284;-77
2021/06/24 12:37:33;;;;;;;2.53;1.60;;;21.80;99.90;;;;;;5025509;28;20278;-78
2021/06/24 12:40:01;;;;;;;1.67;1.40;;;21.40;99.90;;;;;;5042472;28;20280;-77
2021/06/24 12:42:27;;;;;;;2.95;1.50;;;21.20;99.90;;;;;;5041797;28;20304;-77
2021/06/24 12:44:53;;;;;;;2.28;1.52;;;21.20;99.90;;;;;;5042477;28;20376;-77
2021/06/24 12:47:44;;;;;;;2.08;1.50;;;21.20;99.90;;;;;;5042355;28;20198;-78
2021/06/24 12:50:15;;;;;;;1.60;1.48;;;21.30;99.90;;;;;;5041633;28;20186;-77
2021/06/24 12:52:52;;;;;;;1.52;1.42;;;21.50;99.90;;;;;;5041693;28;20723;-78
2021/06/24 12:55:37;;;;;;;1.30;1.20;;;21.80;99.90;;;;;;5042415;28;20198;-78
2021/06/24 12:58:21;;;;;;;1.70;1.38;;;22.00;99.90;;;;;;5026155;28;20269;-77
2021/06/24 13:01:01;;;;;;;1.63;1.52;;;22.30;99.90;;;;;;5042584;28;20186;-77
2021/06/24 13:03:38;;;;;;;2.30;1.70;;;22.50;99.90;;;;;;5042313;28;20293;-78
2021/06/24 13:06:18;;;;;;;1.52;1.42;;;22.70;99.90;;;;;;5025293;28;20225;-78
2021/06/24 13:09:16;;;;;;;3.40;1.60;;;22.20;99.90;;;;;;5042324;28;20640;-78
2021/06/24 13:11:49;;;;;;;3.03;1.98;;;22.40;99.90;;;;;;5041793;28;20198;-77
2021/06/24 13:14:15;;;;;;;1.95;1.60;;;22.10;99.90;;;;;;5041545;28;20552;-77
2021/06/24 13:16:44;;;;;;;3.65;1.85;;;22.00;99.90;;;;;;5025393;28;20221;-78